Time;durP1;ratioP1;P1;durP2;ratioP2;P2;SDS_P1;SDS_P2;PMS_P1;PMS_P2;Temp;Humidity;BMP_temperature;BMP_pressure;BME280_temperature;BME280_humidity;BME280_pressure;Samples;Min_cycle;Max_cycle;Signal;HPM_P1;HPM_P2
2024/04/18 00:01:35;;;;;;;6.72;4.07;;;;;;;-141.50;100.00;63355.56;5398789;26;20342;-81
2024/04/18 00:04:02;;;;;;;8.30;4.50;;;;;;;-141.50;100.00;63355.56;5415469;26;20010;-82
2024/04/18 00:06:30;;;;;;;7.97;4.28;;;;;;;-141.50;100.00;63355.56;5405639;26;20018;-82
2024/04/18 00:08:57;;;;;;;10.27;4.70;;;;;;;-141.50;100.00;63355.56;5417009;26;20080;-82
2024/04/18 00:11:24;;;;;;;8.60;4.90;;;;;;;-141.50;100.00;63355.56;5410477;26;20089;-79
2024/04/18 00:13:51;;;;;;;9.73;4.97;;;;;;;-141.50;100.00;63355.56;5412096;26;20003;-82
2024/04/18 00:16:34;;;;;;;8.45;4.55;;;;;;;-141.50;100.00;63355.56;5402382;26;20481;-83
2024/04/18 00:19:17;;;;;;;8.40;4.85;;;;;;;-141.50;100.00;63355.56;5406057;26;20011;-83
2024/04/18 00:21:57;;;;;;;8.75;4.60;;;;;;;-141.50;100.00;63355.56;5402803;26;20014;-80
2024/04/18 00:24:25;;;;;;;10.70;5.20;;;;;;;-141.50;100.00;63355.56;5405768;26;20334;-83
2024/04/18 00:26:52;;;;;;;11.48;5.35;;;;;;;-141.50;100.00;63355.56;5412022;26;20329;-82
2024/04/18 00:29:19;;;;;;;10.60;5.25;;;;;;;-141.50;100.00;63355.56;5407300;26;20398;-81
2024/04/18 00:31:46;;;;;;;12.95;5.40;;;;;;;-141.50;100.00;63355.56;5400403;26;20008;-85
2024/04/18 00:34:32;;;;;;;12.63;5.78;;;;;;;-141.50;100.00;63355.56;5402188;26;20012;-80
2024/04/18 00:36:59;;;;;;;15.32;5.88;;;;;;;-141.50;100.00;63355.56;5388037;26;20003;-81
2024/04/18 00:39:47;;;;;;;9.68;5.20;;;;;;;-141.50;100.00;63355.56;5402468;26;20004;-83
2024/04/18 00:42:34;;;;;;;14.75;5.80;;;;;;;-141.50;100.00;63355.56;5413350;26;20055;-83
2024/04/18 00:45:06;;;;;;;12.55;5.60;;;;;;;-141.50;100.00;63355.56;5387215;26;20019;-82
2024/04/18 00:47:47;;;;;;;14.07;6.18;;;;;;;-141.50;100.00;63355.56;5414022;26;20205;-79
2024/04/18 00:50:17;;;;;;;16.17;5.80;;;;;;;-141.50;100.00;63355.56;5412159;26;20055;-81
2024/04/18 00:52:46;;;;;;;15.52;6.25;;;;;;;-141.50;100.00;63355.56;5407756;26;20003;-79
2024/04/18 00:55:29;;;;;;;13.10;5.88;;;;;;;-141.50;100.00;63355.56;5415841;26;20026;-79
2024/04/18 00:58:10;;;;;;;11.90;5.72;;;;;;;-141.50;100.00;63355.56;5402306;26;20402;-81
2024/04/18 01:00:41;;;;;;;11.45;5.90;;;;;;;-141.50;100.00;63355.56;5413673;26;20118;-82
2024/04/18 01:03:28;;;;;;;16.52;6.40;;;;;;;-141.50;100.00;63355.56;5394005;26;20077;-82
2024/04/18 01:06:08;;;;;;;13.30;6.70;;;;;;;-141.50;100.00;63355.56;5394603;26;19996;-77
2024/04/18 01:08:54;;;;;;;14.68;5.90;;;;;;;-141.50;100.00;63355.56;5385746;26;20072;-79
2024/04/18 01:11:31;;;;;;;10.63;5.97;;;;;;;-141.50;100.00;63355.56;5410376;26;20015;-81
2024/04/18 01:14:06;;;;;;;12.02;6.10;;;;;;;-141.50;100.00;63355.56;5411112;26;20077;-81
2024/04/18 01:16:51;;;;;;;11.18;5.63;;;;;;;-141.50;100.00;63355.56;5393989;26;20074;-82
2024/04/18 01:19:19;;;;;;;12.55;6.00;;;;;;;-141.50;100.00;63355.56;5391048;26;20336;-80
2024/04/18 01:21:46;;;;;;;12.77;6.57;;;;;;;-141.50;100.00;63355.56;5404177;26;20010;-80
2024/04/18 01:24:14;;;;;;;12.65;6.78;;;;;;;-141.50;100.00;63355.56;5411120;26;20336;-82
2024/04/18 01:26:42;;;;;;;12.38;5.57;;;;;;;-141.50;100.00;63355.56;5414561;26;20431;-82
2024/04/18 01:29:09;;;;;;;11.23;5.70;;;;;;;-141.50;100.00;63355.56;5396898;26;20004;-82
2024/04/18 01:31:57;;;;;;;11.55;5.68;;;;;;;-141.50;100.00;63355.56;5412030;26;20020;-82
2024/04/18 01:34:24;;;;;;;12.65;6.35;;;;;;;-141.50;100.00;63355.56;5404879;26;20009;-80
2024/04/18 01:37:12;;;;;;;;;;;;;;;-141.50;100.00;63355.56;5381918;26;20010;-81
2024/04/18 01:39:41;;;;;;;10.82;5.82;;;;;;;-141.50;100.00;63355.56;5400366;26;19932;-81
2024/04/18 01:42:08;;;;;;;14.77;5.47;;;;;;;-141.50;100.00;63355.56;5392015;26;20339;-81
2024/04/18 01:44:41;;;;;;;14.30;6.80;;;;;;;-141.50;100.00;63355.56;5399926;26;20004;-80
2024/04/18 01:47:28;;;;;;;13.02;6.35;;;;;;;-141.50;100.00;63355.56;5389974;26;20015;-83
2024/04/18 01:50:08;;;;;;;11.98;6.43;;;;;;;-141.50;100.00;63355.56;5404055;26;20019;-83
2024/04/18 01:52:35;;;;;;;12.38;6.20;;;;;;;-141.50;100.00;63355.56;5400742;26;20019;-82
2024/04/18 01:55:04;;;;;;;12.05;6.60;;;;;;;-141.50;100.00;63355.56;5397086;26;20004;-79
2024/04/18 01:57:38;;;;;;;14.73;6.45;;;;;;;-141.50;100.00;63355.56;5408683;26;20018;-81
2024/04/18 02:00:24;;;;;;;14.85;5.85;;;;;;;-141.50;100.00;63355.56;5393683;26;20019;-80
2024/04/18 02:02:51;;;;;;;14.80;5.80;;;;;;;-141.50;100.00;63355.56;5391544;26;20003;-82
2024/04/18 02:05:39;;;;;;;10.15;5.80;;;;;;;-141.50;100.00;63355.56;5410998;26;20026;-79
2024/04/18 02:08:16;;;;;;;10.05;6.15;;;;;;;-141.50;100.00;63355.56;5409707;26;20055;-81
2024/04/18 02:10:49;;;;;;;13.93;6.15;;;;;;;-141.50;100.00;63355.56;5397325;26;20011;-81
2024/04/18 02:13:35;;;;;;;12.82;6.15;;;;;;;-141.50;100.00;63355.56;5398251;26;20016;-82
2024/04/18 02:16:04;;;;;;;11.63;6.15;;;;;;;-141.50;100.00;63355.56;5400766;26;20014;-81
2024/04/18 02:19:10;;;;;;;10.65;5.30;;;;;;;-141.50;100.00;63355.56;5404783;26;20001;-83
2024/04/18 02:21:56;;;;;;;9.05;4.78;;;;;;;-141.50;100.00;63355.56;5408441;26;20386;-81
2024/04/18 02:24:37;;;;;;;9.23;4.82;;;;;;;-141.50;100.00;63355.56;5392255;26;20009;-79
2024/04/18 02:27:05;;;;;;;11.45;5.53;;;;;;;-141.50;100.00;63355.56;5395458;26;20011;-80
2024/04/18 02:29:32;;;;;;;9.80;5.32;;;;;;;-141.50;100.00;63355.56;5399535;26;20016;-82
2024/04/18 02:31:59;;;;;;;9.57;4.95;;;;;;;-141.50;100.00;63355.56;5405207;26;20019;-83
2024/04/18 02:34:29;;;;;;;9.52;5.18;;;;;;;-141.50;100.00;63355.56;5391732;26;20016;-81
2024/04/18 02:36:56;;;;;;;9.77;5.15;;;;;;;-141.50;100.00;63355.56;5410804;26;20019;-83
2024/04/18 02:39:23;;;;;;;11.80;5.47;;;;;;;-141.50;100.00;63355.56;5411386;26;20015;-83
2024/04/18 02:41:50;;;;;;;10.25;5.30;;;;;;;-141.50;100.00;63355.56;5394711;26;20339;-79
2024/04/18 02:44:46;;;;;;;11.85;5.22;;;;;;;-141.50;100.00;63355.56;5399844;26;20022;-83
2024/04/18 02:47:13;;;;;;;13.02;5.97;;;;;;;-141.50;100.00;63355.56;5402619;26;19997;-80
2024/04/18 02:50:03;;;;;;;12.30;5.60;;;;;;;-141.50;100.00;63355.56;5409151;26;20007;-83
2024/04/18 02:52:30;;;;;;;12.75;6.18;;;;;;;-141.50;100.00;63355.56;5410208;26;20003;-80
2024/04/18 02:54:57;;;;;;;10.88;6.05;;;;;;;-141.50;100.00;63355.56;5403011;26;20019;-80
2024/04/18 02:57:24;;;;;;;10.35;5.85;;;;;;;-141.50;100.00;63355.56;5408206;26;20004;-82
2024/04/18 02:59:51;;;;;;;12.75;6.72;;;;;;;-141.50;100.00;63355.56;5406367;26;20004;-79
2024/04/18 03:02:23;;;;;;;11.05;5.97;;;;;;;-141.50;100.00;63355.56;5409608;26;20245;-81
2024/04/18 03:04:51;;;;;;;12.80;6.65;;;;;;;-141.50;100.00;63355.56;5396066;26;20036;-81
2024/04/18 03:07:22;;;;;;;13.32;6.85;;;;;;;-141.50;100.00;63355.56;5410119;26;20008;-81
2024/04/18 03:09:49;;;;;;;14.60;6.85;;;;;;;-141.50;100.00;63355.56;5394408;26;20008;-79
2024/04/18 03:12:28;;;;;;;13.75;7.05;;;;;;;-141.50;100.00;63355.56;5399095;26;20509;-85
2024/04/18 03:15:14;;;;;;;12.25;6.47;;;;;;;-141.50;100.00;63355.56;5408757;26;20039;-83
2024/04/18 03:18:01;;;;;;;16.30;6.72;;;;;;;-141.50;100.00;63355.56;5390210;26;20015;-81
2024/04/18 03:20:33;;;;;;;13.02;6.72;;;;;;;-141.50;100.00;63355.56;5399406;26;19992;-82
2024/04/18 03:23:08;;;;;;;17.13;7.45;;;;;;;-141.50;100.00;63355.56;5359019;26;20062;-80
2024/04/18 03:25:54;;;;;;;14.73;6.78;;;;;;;-141.50;100.00;63355.56;5411089;26;20076;-81
2024/04/18 03:28:21;;;;;;;17.30;7.60;;;;;;;-141.50;100.00;63355.56;5407633;26;20019;-80
2024/04/18 03:30:48;;;;;;;18.73;7.32;;;;;;;-141.50;100.00;63355.56;5386155;26;20015;-81
2024/04/18 03:33:16;;;;;;;16.42;7.53;;;;;;;-141.50;100.00;63355.56;5411817;26;20322;-81
2024/04/18 03:35:43;;;;;;;17.70;8.32;;;;;;;-141.50;100.00;63355.56;5395206;26;20081;-80
2024/04/18 03:38:13;;;;;;;15.98;8.13;;;;;;;-141.50;100.00;63355.56;5394685;26;20012;-80
2024/04/18 03:40:41;;;;;;;19.38;9.43;;;;;;;-141.50;100.00;63355.56;5405483;26;20016;-79
2024/04/18 03:43:08;;;;;;;18.02;9.32;;;;;;;-141.50;100.00;63355.56;5406275;26;20017;-83
2024/04/18 03:45:35;;;;;;;17.25;8.60;;;;;;;-141.50;100.00;63355.56;5411508;26;20084;-81
2024/04/18 03:48:21;;;;;;;22.52;10.63;;;;;;;-141.50;100.00;63355.56;5406852;26;20015;-83
2024/04/18 03:50:48;;;;;;;23.70;11.32;;;;;;;-141.50;100.00;63355.56;5417466;26;20010;-83
2024/04/18 03:53:18;;;;;;;27.42;12.15;;;;;;;-141.50;100.00;63355.56;5402238;26;19996;-82
2024/04/18 03:55:46;;;;;;;22.10;10.80;;;;;;;-141.50;100.00;63355.56;5393274;26;20000;-82
2024/04/18 03:58:13;;;;;;;24.75;11.45;;;;;;;-141.50;100.00;63355.56;5400778;26;20012;-81
2024/04/18 04:00:49;;;;;;;23.05;11.98;;;;;;;-141.50;100.00;63355.56;5393419;26;20010;-83
2024/04/18 04:03:16;;;;;;;22.25;11.07;;;;;;;-141.50;100.00;63355.56;5408411;26;20012;-85
2024/04/18 04:05:45;;;;;;;24.67;11.50;;;;;;;-141.50;100.00;63355.56;5400470;26;19995;-78
2024/04/18 04:08:13;;;;;;;23.88;11.85;;;;;;;-141.50;100.00;63355.56;5405508;26;20000;-82
2024/04/18 04:10:41;;;;;;;19.58;10.40;;;;;;;-141.50;100.00;63355.56;5408467;26;20046;-83
2024/04/18 04:13:09;;;;;;;21.02;11.27;;;;;;;-141.50;100.00;63355.56;5382675;26;20000;-78
2024/04/18 04:15:50;;;;;;;21.52;10.82;;;;;;;-141.50;100.00;63355.56;5415054;26;20073;-78
2024/04/18 04:18:36;;;;;;;23.63;11.85;;;;;;;-141.50;100.00;63355.56;5409515;26;20036;-80
2024/04/18 04:21:22;;;;;;;26.02;12.05;;;;;;;-141.50;100.00;63355.56;5412007;26;20051;-83
2024/04/18 04:23:49;;;;;;;23.67;11.65;;;;;;;-141.50;100.00;63355.56;5419352;26;20281;-78
2024/04/18 04:26:16;;;;;;;21.45;11.32;;;;;;;-141.50;100.00;63355.56;5404746;26;20101;-80
2024/04/18 04:28:44;;;;;;;24.55;10.20;;;;;;;-141.50;100.00;63355.56;5413835;26;20045;-81
2024/04/18 04:31:11;;;;;;;24.98;12.00;;;;;;;-141.50;100.00;63355.56;5418129;26;19996;-79
2024/04/18 04:33:38;;;;;;;22.02;11.48;;;;;;;-141.50;100.00;63355.56;5408818;26;20061;-82
2024/04/18 04:36:05;;;;;;;25.23;12.13;;;;;;;-141.50;100.00;63355.56;5396026;26;20535;-82
2024/04/18 04:38:32;;;;;;;22.67;11.63;;;;;;;-141.50;100.00;63355.56;5376086;26;20008;-83
2024/04/18 04:41:02;;;;;;;24.80;12.50;;;;;;;-141.50;100.00;63355.56;5418639;26;20004;-80
2024/04/18 04:43:29;;;;;;;26.35;12.70;;;;;;;-141.50;100.00;63355.56;5418420;26;20315;-83
2024/04/18 04:45:56;;;;;;;27.38;12.55;;;;;;;-141.50;100.00;63355.56;5413179;26;20011;-82
2024/04/18 04:48:36;;;;;;;23.90;12.65;;;;;;;-141.50;100.00;63355.56;5399984;26;20357;-84
2024/04/18 04:51:09;;;;;;;26.67;12.25;;;;;;;-141.50;100.00;63355.56;5381393;26;19999;-82
2024/04/18 04:53:36;;;;;;;23.67;12.00;;;;;;;-141.50;100.00;63355.56;5406053;26;20770;-82
2024/04/18 04:56:03;;;;;;;22.90;12.18;;;;;;;-141.50;100.00;63355.56;5407282;26;20028;-85
2024/04/18 04:58:30;;;;;;;22.13;11.48;;;;;;;-141.50;100.00;63355.56;5412102;26;20504;-82
2024/04/18 05:00:57;;;;;;;26.42;12.20;;;;;;;-141.50;100.00;63355.56;5417712;26;20015;-82
2024/04/18 05:03:37;;;;;;;24.45;11.57;;;;;;;-141.50;100.00;63355.56;5409146;26;20086;-82
2024/04/18 05:06:23;;;;;;;19.23;10.05;;;;;;;-141.50;100.00;63355.56;5410725;26;20018;-82
2024/04/18 05:09:09;;;;;;;20.58;10.65;;;;;;;-141.50;100.00;63355.56;5390184;26;20015;-83
2024/04/18 05:11:36;;;;;;;19.25;9.73;;;;;;;-141.50;100.00;63355.56;5400536;26;20004;-80
2024/04/18 05:14:23;;;;;;;23.58;9.77;;;;;;;-141.50;100.00;63355.56;5405028;26;20040;-83
2024/04/18 05:16:50;;;;;;;22.88;10.27;;;;;;;-141.50;100.00;63355.56;5410185;26;19995;-79
2024/04/18 05:19:21;;;;;;;18.52;10.48;;;;;;;-141.50;100.00;63355.56;5405596;26;20007;-83
2024/04/18 05:21:48;;;;;;;20.40;10.13;;;;;;;-141.50;100.00;63355.56;5416920;26;20019;-82
2024/04/18 05:24:31;;;;;;;21.45;10.80;;;;;;;-141.50;100.00;63355.56;5396138;26;20017;-83
2024/04/18 05:26:58;;;;;;;19.35;9.98;;;;;;;-141.50;100.00;63355.56;5403168;26;20000;-82
2024/04/18 05:32:10;;;;;;;19.75;10.50;;;;;;;-141.50;100.00;63355.56;5404860;26;20023;-82
2024/04/18 05:34:57;;;;;;;19.02;9.88;;;;;;;-141.50;100.00;63355.56;5412782;26;20008;-82
2024/04/18 05:37:24;;;;;;;20.23;9.48;;;;;;;-141.50;100.00;63355.56;5398797;26;20020;-83
2024/04/18 05:39:51;;;;;;;17.20;9.15;;;;;;;-141.50;100.00;63355.56;5434332;26;20020;-83
2024/04/18 05:42:18;;;;;;;18.17;9.50;;;;;;;-141.50;100.00;63355.56;5396309;26;20445;-82
2024/04/18 05:45:06;;;;;;;21.40;9.30;;;;;;;-141.50;100.00;63355.56;5399728;26;20100;-84
2024/04/18 05:47:53;;;;;;;21.15;10.65;;;;;;;-141.50;100.00;63355.56;5398538;26;20000;-83
2024/04/18 05:50:20;;;;;;;15.93;8.68;;;;;;;-141.50;100.00;63355.56;5400360;26;19999;-83
2024/04/18 05:52:48;;;;;;;17.05;8.88;;;;;;;-141.50;100.00;63355.56;5417754;26;20032;-81
2024/04/18 05:55:21;;;;;;;15.93;7.70;;;;;;;-141.50;100.00;63355.56;5395252;26;20332;-82
2024/04/18 05:57:48;;;;;;;15.88;8.38;;;;;;;-141.50;100.00;63355.56;5399424;26;20503;-82
2024/04/18 06:00:35;;;;;;;16.55;8.27;;;;;;;-141.50;100.00;63355.56;5415474;26;20018;-83
2024/04/18 06:03:03;;;;;;;18.13;8.65;;;;;;;-141.50;100.00;63355.56;5396562;26;20032;-83
2024/04/18 06:05:30;;;;;;;14.82;7.78;;;;;;;-141.50;100.00;63355.56;5400417;26;20459;-84
2024/04/18 06:08:13;;;;;;;16.60;8.38;;;;;;;-141.50;100.00;63355.56;5401997;26;20507;-82
2024/04/18 06:10:43;;;;;;;15.40;8.88;;;;;;;-141.50;100.00;63355.56;5411851;26;20016;-84
2024/04/18 06:13:18;;;;;;;16.52;9.10;;;;;;;-141.50;100.00;63355.56;5400519;26;20023;-82
2024/04/18 06:15:47;;;;;;;15.20;7.32;;;;;;;-141.50;100.00;63355.56;5413964;26;20015;-84
2024/04/18 06:18:15;;;;;;;16.02;7.90;;;;;;;-141.50;100.00;63355.56;5400191;26;20459;-84
2024/04/18 06:20:46;;;;;;;16.13;7.38;;;;;;;-141.50;100.00;63355.56;5390691;26;20005;-83
2024/04/18 06:23:14;;;;;;;18.10;8.40;;;;;;;-141.50;100.00;63355.56;5396402;26;20004;-83
2024/04/18 06:25:42;;;;;;;16.35;8.45;;;;;;;-141.50;100.00;63355.56;5395656;26;20080;-83
2024/04/18 06:28:10;;;;;;;11.63;6.80;;;;;;;-141.50;100.00;63355.56;5401321;26;20003;-80
2024/04/18 06:30:39;;;;;;;16.88;8.43;;;;;;;-141.50;100.00;63355.56;5413935;26;20118;-81
2024/04/18 06:33:09;;;;;;;15.70;8.57;;;;;;;-141.50;100.00;63355.56;5387197;26;20014;-80
2024/04/18 06:35:37;;;;;;;17.25;8.35;;;;;;;-141.50;100.00;63355.56;5399954;26;20004;-81
2024/04/18 06:38:06;;;;;;;18.40;7.78;;;;;;;-141.50;100.00;63355.56;5408638;26;20062;-82
2024/04/18 06:40:33;;;;;;;15.10;7.65;;;;;;;-141.50;100.00;63355.56;5396477;26;20015;-81
2024/04/18 06:43:00;;;;;;;15.25;7.82;;;;;;;-141.50;100.00;63355.56;5409514;26;20007;-82
2024/04/18 06:45:28;;;;;;;11.73;6.50;;;;;;;-141.50;100.00;63355.56;5402928;26;20058;-80
2024/04/18 06:47:55;;;;;;;9.85;5.03;;;;;;;-141.50;100.00;63355.56;5406562;26;20008;-82
2024/04/18 06:50:22;;;;;;;10.07;4.85;;;;;;;-141.50;100.00;63355.56;5410346;26;20027;-83
2024/04/18 06:52:52;;;;;;;9.60;5.10;;;;;;;-141.50;100.00;63355.56;5408355;26;20487;-81
2024/04/18 06:55:21;;;;;;;8.13;4.78;;;;;;;-141.50;100.00;63355.56;5398657;26;20464;-81
2024/04/18 06:57:48;;;;;;;8.73;4.32;;;;;;;-141.50;100.00;63355.56;5402327;26;20440;-81
2024/04/18 07:00:16;;;;;;;10.75;4.63;;;;;;;-141.50;100.00;63355.56;5369719;26;20007;-82
2024/04/18 07:02:44;;;;;;;9.07;5.35;;;;;;;-141.50;100.00;63355.56;5403842;26;20003;-81
2024/04/18 07:05:30;;;;;;;7.35;4.03;;;;;;;-141.50;100.00;63355.56;5389066;26;20023;-82
2024/04/18 07:08:16;;;;;;;7.07;4.05;;;;;;;-141.50;100.00;63355.56;5402750;26;20018;-81
2024/04/18 07:10:43;;;;;;;8.18;4.18;;;;;;;-141.50;100.00;63355.56;5398657;26;20075;-81
2024/04/18 07:13:26;;;;;;;7.97;3.65;;;;;;;-141.50;100.00;63355.56;5388288;26;20012;-79
2024/04/18 07:15:53;;;;;;;9.13;4.47;;;;;;;-141.50;100.00;63355.56;5398170;26;20015;-82
2024/04/18 07:18:39;;;;;;;;;;;;;;;-141.50;100.00;63355.56;5387846;26;20016;-83
2024/04/18 07:21:06;;;;;;;8.57;3.72;;;;;;;-141.50;100.00;63355.56;5415819;26;19925;-83
2024/04/18 07:23:36;;;;;;;8.50;4.03;;;;;;;-141.50;100.00;63355.56;5406104;26;20000;-81
2024/04/18 07:26:04;;;;;;;7.32;3.88;;;;;;;-141.50;100.00;63355.56;5415185;26;19999;-81
2024/04/18 07:28:31;;;;;;;5.45;3.42;;;;;;;-141.50;100.00;63355.56;5415241;26;20025;-82
2024/04/18 07:30:58;;;;;;;7.30;3.20;;;;;;;-141.50;100.00;63355.56;5405286;26;20011;-82
2024/04/18 07:33:25;;;;;;;6.25;3.15;;;;;;;-141.50;100.00;63355.56;5397321;26;20028;-83
2024/04/18 07:35:58;;;;;;;5.15;3.10;;;;;;;-141.50;100.00;63355.56;5411450;26;20043;-84
2024/04/18 07:38:28;;;;;;;5.00;2.95;;;;;;;-141.50;100.00;63355.56;5393709;26;20015;-83
2024/04/18 07:40:55;;;;;;;6.97;3.25;;;;;;;-141.50;100.00;63355.56;5403436;26;20015;-83
2024/04/18 07:43:22;;;;;;;4.18;2.78;;;;;;;-141.50;100.00;63355.56;5414821;26;20026;-81
2024/04/18 07:45:49;;;;;;;6.70;3.60;;;;;;;-141.50;100.00;63355.56;5400129;26;20014;-81
2024/04/18 07:48:16;;;;;;;6.20;3.67;;;;;;;-141.50;100.00;63355.56;5390798;26;20012;-82
2024/04/18 07:50:44;;;;;;;7.15;3.92;;;;;;;-141.50;100.00;63355.56;5406763;26;20022;-82
2024/04/18 07:53:11;;;;;;;7.70;3.53;;;;;;;-141.50;100.00;63355.56;5383624;26;20000;-84
2024/04/18 07:55:41;;;;;;;7.80;3.75;;;;;;;-141.50;100.00;63355.56;5413049;26;20012;-83
2024/04/18 07:58:08;;;;;;;5.90;3.50;;;;;;;-141.50;100.00;63355.56;5400639;26;20100;-82
2024/04/18 08:00:35;;;;;;;5.60;3.22;;;;;;;-141.50;100.00;63355.56;5416002;26;20003;-81
2024/04/18 08:03:04;;;;;;;6.15;2.97;;;;;;;-141.50;100.00;63355.56;5397409;26;20007;-81
2024/04/18 08:05:34;;;;;;;5.72;2.70;;;;;;;-141.50;100.00;63355.56;5392756;26;20041;-81
2024/04/18 08:08:05;;;;;;;6.22;3.03;;;;;;;-141.50;100.00;63355.56;5403006;26;20011;-82
2024/04/18 08:10:37;;;;;;;5.65;2.78;;;;;;;-141.50;100.00;63355.56;5410976;26;20473;-82
2024/04/18 08:13:24;;;;;;;4.15;2.30;;;;;;;-141.50;100.00;63355.56;5382773;26;20022;-80
2024/04/18 08:16:01;;;;;;;3.47;1.90;;;;;;;-141.50;100.00;63355.56;5398773;26;20004;-79
2024/04/18 08:18:28;;;;;;;2.53;1.70;;;;;;;-141.50;100.00;63355.56;5400486;26;20000;-81
2024/04/18 08:20:58;;;;;;;5.00;1.60;;;;;;;-141.50;100.00;63355.56;5408556;26;20453;-82
2024/04/18 08:23:26;;;;;;;3.88;1.80;;;;;;;-141.50;100.00;63355.56;5406597;26;20415;-81
2024/04/18 08:25:53;;;;;;;4.30;1.75;;;;;;;-141.50;100.00;63355.56;5394903;26;20472;-82
2024/04/18 08:28:21;;;;;;;4.82;2.00;;;;;;;-141.50;100.00;63355.56;5415143;26;20015;-80
2024/04/18 08:30:48;;;;;;;3.35;1.55;;;;;;;-141.50;100.00;63355.56;5402236;26;20018;-82
2024/04/18 08:33:15;;;;;;;2.30;1.38;;;;;;;-141.50;100.00;63355.56;5400622;26;20023;-83
2024/04/18 08:35:46;;;;;;;3.70;1.52;;;;;;;-141.50;100.00;63355.56;5414254;26;20022;-82
2024/04/18 08:38:12;;;;;;;2.92;1.70;;;;;;;-141.50;100.00;63355.56;5402641;26;20007;-80
2024/04/18 08:40:44;;;;;;;2.40;1.50;;;;;;;-141.50;100.00;63355.56;5381872;26;20032;-83
2024/04/18 08:43:12;;;;;;;2.75;1.65;;;;;;;-141.50;100.00;63355.56;5368016;26;20544;-83
2024/04/18 08:45:44;;;;;;;3.15;1.17;;;;;;;-141.50;100.00;63355.56;5409849;26;20012;-82
2024/04/18 08:48:13;;;;;;;3.38;1.40;;;;;;;-141.50;100.00;63355.56;5411970;26;20257;-83
2024/04/18 08:50:43;;;;;;;2.70;1.38;;;;;;;-141.50;100.00;63355.56;5388823;26;20338;-83
2024/04/18 08:53:11;;;;;;;6.90;1.50;;;;;;;-141.50;100.00;63355.56;5402689;26;20007;-82
2024/04/18 08:55:50;;;;;;;3.28;1.40;;;;;;;-141.50;100.00;63355.56;5403176;26;20000;-83
2024/04/18 08:58:21;;;;;;;3.08;1.23;;;;;;;-141.50;100.00;63355.56;5405319;26;20026;-82
2024/04/18 09:00:49;;;;;;;3.15;1.10;;;;;;;-141.50;100.00;63355.56;5417860;26;20026;-82
2024/04/18 09:03:16;;;;;;;2.15;1.30;;;;;;;-141.50;100.00;63355.56;5418667;26;20060;-83
2024/04/18 09:05:44;;;;;;;2.67;1.25;;;;;;;-141.50;100.00;63355.56;5419094;26;20032;-81
2024/04/18 09:08:12;;;;;;;6.22;1.60;;;;;;;-141.50;100.00;63355.56;5402903;26;20010;-81
2024/04/18 09:10:40;;;;;;;3.65;1.20;;;;;;;-141.50;100.00;63355.56;5404282;26;20008;-82
2024/04/18 09:13:09;;;;;;;2.97;1.30;;;;;;;-141.50;100.00;63355.56;5390215;26;20000;-82
2024/04/18 09:15:37;;;;;;;6.25;1.23;;;;;;;-141.50;100.00;63355.56;5395267;26;20008;-79
2024/04/18 09:18:09;;;;;;;5.90;1.73;;;;;;;-141.50;100.00;63355.56;5399364;26;20044;-82
2024/04/18 09:20:43;;;;;;;3.33;1.93;;;;;;;-141.50;100.00;63355.56;5411490;26;20022;-83
2024/04/18 09:23:10;;;;;;;3.15;1.50;;;;;;;-141.50;100.00;63355.56;5402306;26;20098;-81
2024/04/18 09:25:38;;;;;;;2.50;1.45;;;;;;;-141.50;100.00;63355.56;5387259;26;20038;-81
2024/04/18 09:28:08;;;;;;;3.33;1.88;;;;;;;-141.50;100.00;63355.56;5409715;26;20004;-81
2024/04/18 09:30:37;;;;;;;3.05;1.60;;;;;;;-141.50;100.00;63355.56;5416369;26;20019;-83
2024/04/18 09:33:05;;;;;;;2.30;1.30;;;;;;;-141.50;100.00;63355.56;5409927;26;20004;-83
2024/04/18 09:35:35;;;;;;;2.17;1.58;;;;;;;-141.50;100.00;63355.56;5412353;26;20008;-82
2024/04/18 09:38:07;;;;;;;3.03;1.60;;;;;;;-141.50;100.00;63355.56;5406499;26;20023;-83
2024/04/18 09:40:40;;;;;;;3.28;1.13;;;;;;;-141.50;100.00;63355.56;5391177;26;20072;-81
2024/04/18 09:43:30;;;;;;;4.47;1.30;;;;;;;-141.50;100.00;63355.56;5407734;26;20007;-81
2024/04/18 09:46:04;;;;;;;2.50;1.27;;;;;;;-141.50;100.00;63355.56;5406228;26;20009;-80
2024/04/18 09:48:32;;;;;;;2.15;1.17;;;;;;;-141.50;100.00;63355.56;5410223;26;20000;-79
2024/04/18 09:51:02;;;;;;;4.75;1.52;;;;;;;-141.50;100.00;63355.56;5379912;26;20344;-82
2024/04/18 09:53:30;;;;;;;2.70;1.17;;;;;;;-141.50;100.00;63355.56;5412610;26;20007;-80
2024/04/18 09:55:58;;;;;;;1.77;1.00;;;;;;;-141.50;100.00;63355.56;5369598;26;20023;-82
2024/04/18 09:58:27;;;;;;;3.15;1.48;;;;;;;-141.50;100.00;63355.56;5410007;26;20003;-80
2024/04/18 10:00:57;;;;;;;3.40;1.60;;;;;;;-141.50;100.00;63355.56;5415956;26;20019;-81
2024/04/18 10:03:24;;;;;;;5.90;2.15;;;;;;;-141.50;100.00;63355.56;5410161;26;20008;-83
2024/04/18 10:05:54;;;;;;;3.92;2.13;;;;;;;-141.50;100.00;63355.56;5397216;26;20390;-80
2024/04/18 10:08:27;;;;;;;3.75;2.08;;;;;;;-141.50;100.00;63355.56;5395424;26;20453;-81
2024/04/18 10:10:54;;;;;;;2.97;1.70;;;;;;;-141.50;100.00;63355.56;5397585;26;20007;-81
2024/04/18 10:13:25;;;;;;;2.03;1.25;;;;;;;-141.50;100.00;63355.56;5404033;26;20015;-79
2024/04/18 10:16:09;;;;;;;3.60;1.67;;;;;;;-141.50;100.00;63355.56;5394808;26;20008;-80
2024/04/18 10:18:37;;;;;;;2.28;1.48;;;;;;;-141.50;100.00;63355.56;5411811;26;20775;-82
2024/04/18 10:21:16;;;;;;;2.88;1.52;;;;;;;-141.50;100.00;63355.56;5406020;26;20003;-80
2024/04/18 10:24:04;;;;;;;4.40;2.00;;;;;;;-141.50;100.00;63355.56;5404497;26;20467;-81
2024/04/18 10:26:32;;;;;;;1.40;1.00;;;;;;;-141.50;100.00;63355.56;5413001;26;20397;-81
2024/04/18 10:28:59;;;;;;;2.72;1.20;;;;;;;-141.50;100.00;63355.56;5410606;26;20336;-79
2024/04/18 10:31:30;;;;;;;1.92;1.27;;;;;;;-141.50;100.00;63355.56;5407636;26;20012;-79
2024/04/18 10:33:59;;;;;;;4.25;1.50;;;;;;;-141.50;100.00;63355.56;5409754;26;20065;-81
2024/04/18 10:36:27;;;;;;;1.40;1.10;;;;;;;-141.50;100.00;63355.56;5401905;26;20008;-80
2024/04/18 10:38:53;;;;;;;2.03;0.88;;;;;;;-141.50;100.00;63355.56;5407774;26;20023;-83
2024/04/18 10:41:22;;;;;;;1.45;0.90;;;;;;;-141.50;100.00;63355.56;5415490;26;20078;-80
2024/04/18 10:43:50;;;;;;;2.05;0.95;;;;;;;-141.50;100.00;63355.56;5395513;26;20023;-78
2024/04/18 10:46:18;;;;;;;2.60;1.50;;;;;;;-141.50;100.00;63355.56;5403005;26;20019;-80
2024/04/18 10:48:52;;;;;;;1.67;1.17;;;;;;;-141.50;100.00;63355.56;5411308;26;20018;-81
2024/04/18 10:51:20;;;;;;;4.22;1.30;;;;;;;-141.50;100.00;63355.56;5409446;26;20019;-83
2024/04/18 10:53:47;;;;;;;1.58;1.10;;;;;;;-141.50;100.00;63355.56;5404886;26;20010;-82
2024/04/18 10:56:15;;;;;;;1.63;1.10;;;;;;;-141.50;100.00;63355.56;5413360;26;19999;-82
2024/04/18 10:58:42;;;;;;;2.47;1.20;;;;;;;-141.50;100.00;63355.56;5402723;26;20015;-83
2024/04/18 11:01:09;;;;;;;2.08;1.13;;;;;;;-141.50;100.00;63355.56;5403178;26;20000;-82
2024/04/18 11:03:36;;;;;;;3.10;1.13;;;;;;;-141.50;100.00;63355.56;5411702;26;20004;-83
2024/04/18 11:06:03;;;;;;;2.03;1.10;;;;;;;-141.50;100.00;63355.56;5403839;26;20019;-82
2024/04/18 11:08:31;;;;;;;1.73;1.08;;;;;;;-141.50;100.00;63355.56;5405073;26;20018;-79
2024/04/18 11:11:02;;;;;;;2.28;1.17;;;;;;;-141.50;100.00;63355.56;5406527;26;20000;-83
2024/04/18 11:13:30;;;;;;;1.60;0.90;;;;;;;-141.50;100.00;63355.56;5407823;26;20010;-82
2024/04/18 11:15:57;;;;;;;1.73;1.00;;;;;;;-141.50;100.00;63355.56;5396825;26;20000;-83
2024/04/18 11:18:24;;;;;;;1.58;0.82;;;;;;;-141.50;100.00;63355.56;5408315;26;20004;-80
2024/04/18 11:20:52;;;;;;;1.30;0.75;;;;;;;-141.50;100.00;63355.56;5405379;26;20007;-83
2024/04/18 11:23:23;;;;;;;1.33;0.80;;;;;;;-141.50;100.00;63355.56;5397310;26;20027;-81
2024/04/18 11:26:12;;;;;;;2.15;0.80;;;;;;;-141.50;100.00;63355.56;5406936;26;20003;-83
2024/04/18 11:28:41;;;;;;;2.25;0.80;;;;;;;-141.50;100.00;63355.56;5410951;26;20003;-82